Time;durP1;ratioP1;P1;durP2;ratioP2;P2;SDS_P1;SDS_P2;PMS_P1;PMS_P2;Temp;Humidity;BMP_temperature;BMP_pressure;BME280_temperature;BME280_humidity;BME280_pressure;Samples;Min_cycle;Max_cycle;Signal;HPM_P1;HPM_P2
2023/11/30 00:00:36;;;;;;;34.60;16.90;;;;;;;-4.92;85.79;95270.81;106863;1273;25344;-78
2023/11/30 00:03:24;;;;;;;34.00;17.60;;;;;;;-4.87;85.91;95271.84;106787;1274;22671;-79
2023/11/30 00:05:53;;;;;;;45.70;20.70;;;;;;;-4.86;85.20;95271.35;106864;1273;22523;-78
2023/11/30 00:08:21;;;;;;;36.40;17.60;;;;;;;-4.84;84.78;95267.64;106768;1273;22607;-79
2023/11/30 00:10:49;;;;;;;28.30;14.70;;;;;;;-4.88;84.49;95271.09;106651;1273;25303;-79
2023/11/30 00:13:17;;;;;;;28.50;14.00;;;;;;;-4.90;85.49;95274.83;106759;1273;22535;-79
2023/11/30 00:15:46;;;;;;;28.50;14.00;;;;;;;-4.84;85.95;95275.38;107022;1274;22515;-79
2023/11/30 00:18:14;;;;;;;25.50;12.50;;;;;;;-4.79;86.00;95280.51;106898;1274;24085;-79
2023/11/30 00:20:43;;;;;;;21.20;10.00;;;;;;;-4.79;85.87;95283.77;106815;1273;24247;-79
2023/11/30 00:23:11;;;;;;;25.90;13.30;;;;;;;-4.87;85.51;95280.92;106839;1273;22529;-79
2023/11/30 00:25:39;;;;;;;25.30;12.40;;;;;;;-5.00;85.31;95282.88;106859;1273;22517;-78
2023/11/30 00:28:07;;;;;;;24.90;11.70;;;;;;;-5.07;85.61;95282.42;106818;1274;25278;-79
2023/11/30 00:30:35;;;;;;;28.80;14.60;;;;;;;-5.19;85.77;95283.02;106814;1274;25358;-79
2023/11/30 00:33:04;;;;;;;24.90;12.40;;;;;;;-5.28;85.67;95287.86;106954;1273;23119;-79
2023/11/30 00:35:32;;;;;;;23.30;11.40;;;;;;;-5.34;86.09;95293.80;106953;1273;25291;-78
2023/11/30 00:38:00;;;;;;;26.10;12.20;;;;;;;-5.32;86.22;95300.58;107049;1273;22635;-78
2023/11/30 00:40:29;;;;;;;25.90;11.90;;;;;;;-5.32;86.29;95303.14;106927;1273;24700;-78
2023/11/30 00:42:57;;;;;;;24.90;10.90;;;;;;;-5.39;86.44;95309.41;106811;1273;22639;-78
2023/11/30 00:45:25;;;;;;;30.90;12.30;;;;;;;-5.44;86.67;95314.52;106811;1273;25425;-78
2023/11/30 00:47:53;;;;;;;19.90;10.20;;;;;;;-5.51;86.98;95311.53;106827;1273;23944;-78
2023/11/30 00:50:21;;;;;;;25.80;11.80;;;;;;;-5.51;87.00;95308.80;106821;1274;22636;-78
2023/11/30 00:52:50;;;;;;;30.90;12.50;;;;;;;-5.52;86.88;95313.88;106835;1273;22529;-78
2023/11/30 00:55:18;;;;;;;28.30;13.60;;;;;;;-5.53;86.97;95312.83;106827;1251;22723;-78
2023/11/30 00:57:46;;;;;;;26.90;13.00;;;;;;;-5.46;87.37;95308.09;106798;1273;25538;-78
2023/11/30 01:00:15;;;;;;;26.80;12.90;;;;;;;-5.45;86.92;95307.98;106801;1273;24225;-78
2023/11/30 01:02:44;;;;;;;32.60;14.10;;;;;;;-5.52;86.51;95305.47;106748;1274;22572;-78
2023/11/30 01:05:12;;;;;;;27.20;12.50;;;;;;;-5.57;86.55;95306.66;107046;1274;23941;-78
2023/11/30 01:07:40;;;;;;;25.50;11.70;;;;;;;-5.61;86.52;95304.60;106952;1273;22521;-79
2023/11/30 01:10:08;;;;;;;27.50;13.20;;;;;;;-5.76;86.86;95307.33;106914;1273;22573;-79
2023/11/30 01:12:36;;;;;;;33.40;15.20;;;;;;;-5.86;87.83;95305.55;106634;1274;22673;-78
2023/11/30 01:15:05;;;;;;;33.30;14.20;;;;;;;-5.90;87.97;95306.44;106852;1264;24468;-77
2023/11/30 01:17:33;;;;;;;31.50;15.60;;;;;;;-5.92;88.59;95305.83;106919;1274;22516;-78
2023/11/30 01:20:02;;;;;;;45.80;18.70;;;;;;;-5.89;88.78;95308.52;106786;1274;22547;-78
2023/11/30 01:22:30;;;;;;;45.90;20.30;;;;;;;-5.86;88.73;95313.42;106843;1274;23922;-78
2023/11/30 01:24:58;;;;;;;37.20;17.40;;;;;;;-5.86;88.20;95311.55;106740;1274;23940;-78
2023/11/30 01:27:26;;;;;;;48.50;19.40;;;;;;;-5.90;87.58;95315.67;106821;1273;24285;-79
2023/11/30 01:29:55;;;;;;;45.00;18.80;;;;;;;-6.01;87.53;95322.61;106638;1273;22648;-79
2023/11/30 01:32:23;;;;;;;39.90;15.10;;;;;;;-6.08;87.92;95322.70;106854;1273;23882;-78
2023/11/30 01:34:51;;;;;;;31.40;13.90;;;;;;;-6.07;88.22;95326.30;106648;1261;22510;-79
2023/11/30 01:37:19;;;;;;;20.90;10.10;;;;;;;-6.06;87.69;95324.13;107009;1273;22524;-79
2023/11/30 01:39:47;;;;;;;21.20;10.30;;;;;;;-6.03;87.59;95322.37;107052;1274;25425;-78
2023/11/30 01:42:15;;;;;;;25.00;11.80;;;;;;;-5.97;87.46;95324.83;106908;1274;22520;-78
2023/11/30 01:44:43;;;;;;;23.90;12.60;;;;;;;-5.91;87.09;95326.06;106916;1273;22536;-79
2023/11/30 01:47:12;;;;;;;29.50;14.40;;;;;;;-5.82;87.26;95324.02;106750;1266;22521;-78
2023/11/30 01:49:40;;;;;;;16.10;9.30;;;;;;;-5.76;86.97;95319.48;106770;1273;24028;-79
2023/11/30 01:52:09;;;;;;;13.20;6.40;;;;;;;-5.72;87.05;95318.94;106804;1273;22521;-78
2023/11/30 01:54:37;;;;;;;32.50;14.40;;;;;;;-5.72;86.12;95322.52;106898;1273;25294;-79
2023/11/30 01:57:06;;;;;;;27.50;13.30;;;;;;;-5.77;86.20;95320.61;106783;1273;22530;-78
2023/11/30 01:59:34;;;;;;;15.90;7.70;;;;;;;-5.83;85.77;95324.36;106772;1273;25528;-79
2023/11/30 02:02:03;;;;;;;12.00;6.30;;;;;;;-5.97;84.53;95321.39;106822;1273;25476;-78
2023/11/30 02:04:34;;;;;;;12.30;5.60;;;;;;;-6.07;84.77;95325.30;106865;1273;25459;-79
2023/11/30 02:07:03;;;;;;;12.90;6.00;;;;;;;-6.12;84.60;95320.67;106903;1273;24403;-79
2023/11/30 02:09:31;;;;;;;9.80;5.50;;;;;;;-6.20;84.16;95318.80;106983;1274;22521;-79
2023/11/30 02:11:59;;;;;;;9.10;4.90;;;;;;;-6.27;83.86;95319.01;106991;1274;24218;-78
2023/11/30 02:14:32;;;;;;;10.10;5.30;;;;;;;-6.41;83.82;95316.23;107082;1273;22629;-79
2023/11/30 02:17:00;;;;;;;12.30;6.50;;;;;;;-6.49;84.16;95316.90;106842;1273;22528;-79
2023/11/30 02:19:29;;;;;;;14.10;6.40;;;;;;;-6.54;84.39;95314.52;106762;1273;22517;-79
2023/11/30 02:21:57;;;;;;;17.80;8.40;;;;;;;-6.62;84.81;95308.69;106805;1273;25264;-79
2023/11/30 02:24:25;;;;;;;20.40;9.50;;;;;;;-6.66;85.42;95303.21;107000;1273;25369;-79
2023/11/30 02:26:54;;;;;;;20.40;11.50;;;;;;;-6.71;85.74;95307.95;106958;1273;24285;-79
2023/11/30 02:29:22;;;;;;;19.70;8.60;;;;;;;-6.76;86.29;95310.35;106815;1273;22651;-79
2023/11/30 02:31:51;;;;;;;9.60;6.00;;;;;;;-6.73;86.51;95308.02;106720;1274;24207;-79
2023/11/30 02:34:19;;;;;;;9.10;5.20;;;;;;;-6.70;86.25;95305.92;106696;1273;22947;-79
2023/11/30 02:36:47;;;;;;;24.90;11.20;;;;;;;-6.75;85.40;95307.95;107063;1273;22532;-78
2023/11/30 02:39:15;;;;;;;41.90;18.80;;;;;;;-6.80;85.99;95305.53;107048;1273;22524;-79
2023/11/30 02:41:43;;;;;;;40.10;16.60;;;;;;;-6.81;87.01;95306.52;106926;1273;25461;-79
2023/11/30 02:44:11;;;;;;;54.00;24.20;;;;;;;-6.78;87.52;95300.14;106868;1273;24265;-79
2023/11/30 02:46:41;;;;;;;47.40;20.90;;;;;;;-6.73;87.65;95300.52;106840;1273;25606;-79
2023/11/30 02:49:09;;;;;;;42.10;18.60;;;;;;;-6.71;87.25;95298.20;106692;1273;22918;-79
2023/11/30 02:51:37;;;;;;;37.50;16.80;;;;;;;-6.71;86.79;95299.91;106834;1273;26822;-79
2023/11/30 02:54:05;;;;;;;30.00;14.20;;;;;;;-6.62;87.21;95300.46;106983;1273;22652;-79
2023/11/30 02:56:40;;;;;;;19.20;10.30;;;;;;;-6.53;87.05;95298.98;106834;1274;25808;-79
2023/11/30 02:59:09;;;;;;;8.60;5.10;;;;;;;-6.45;86.77;95300.17;106703;1264;25236;-79
2023/11/30 03:01:47;;;;;;;8.80;5.50;;;;;;;-6.36;86.12;95298.29;106830;1273;22517;-79
2023/11/30 03:04:15;;;;;;;20.50;10.10;;;;;;;-6.33;85.78;95294.48;106869;1273;26796;-79
2023/11/30 03:06:48;;;;;;;12.70;7.00;;;;;;;-6.24;86.25;95297.73;106630;1274;22616;-79
2023/11/30 03:09:17;;;;;;;12.40;6.10;;;;;;;-6.28;84.94;95295.70;106887;1274;26587;-79
2023/11/30 03:11:45;;;;;;;26.90;13.60;;;;;;;-6.31;84.59;95297.63;106881;1273;22536;-79
2023/11/30 03:14:13;;;;;;;28.00;13.60;;;;;;;-6.37;84.19;95294.98;106725;1273;22696;-79
2023/11/30 03:16:41;;;;;;;27.30;14.20;;;;;;;-6.43;84.55;95290.80;106745;1273;25450;-79
2023/11/30 03:19:10;;;;;;;24.00;11.90;;;;;;;-6.43;84.76;95290.16;106854;1273;25422;-79
2023/11/30 03:21:44;;;;;;;19.10;10.20;;;;;;;-6.44;84.75;95295.88;106677;1274;22527;-79
2023/11/30 03:24:13;;;;;;;10.50;5.50;;;;;;;-6.31;85.35;95291.12;106860;1274;24255;-79
2023/11/30 03:26:41;;;;;;;15.40;8.00;;;;;;;-6.29;84.58;95291.90;106685;1274;22534;-79
2023/11/30 03:29:09;;;;;;;24.10;11.70;;;;;;;-6.29;84.08;95299.23;106829;1273;25618;-79
2023/11/30 03:31:37;;;;;;;20.60;10.30;;;;;;;-6.36;83.60;95304.45;106982;1273;24221;-79
2023/11/30 03:34:08;;;;;;;22.60;12.70;;;;;;;-6.42;83.80;95309.83;106733;1274;22617;-79
2023/11/30 03:36:36;;;;;;;20.00;10.30;;;;;;;-6.45;83.95;95304.58;106703;1251;22533;-79
2023/11/30 03:39:04;;;;;;;36.20;19.10;;;;;;;-6.48;84.04;95298.98;106821;1273;24396;-79
2023/11/30 03:41:32;;;;;;;60.90;30.00;;;;;;;-6.40;84.48;95299.14;106920;1273;22681;-79
2023/11/30 03:44:01;;;;;;;50.30;25.30;;;;;;;-6.41;83.98;95294.16;106948;1273;23001;-79
2023/11/30 03:46:29;;;;;;;23.40;12.70;;;;;;;-6.39;84.71;95293.38;106982;1274;22633;-78
2023/11/30 03:48:58;;;;;;;20.60;10.90;;;;;;;-6.28;84.34;95289.51;106971;1250;22540;-79
2023/11/30 03:51:26;;;;;;;16.40;8.10;;;;;;;-6.30;83.39;95288.60;106866;1251;22599;-79
2023/11/30 03:53:55;;;;;;;6.00;3.30;;;;;;;-6.33;83.67;95288.00;106811;1274;25242;-79
2023/11/30 03:56:23;;;;;;;5.70;2.70;;;;;;;-6.26;84.42;95290.13;106807;1274;22574;-79
2023/11/30 03:58:51;;;;;;;5.40;3.30;;;;;;;-6.25;84.33;95296.15;106654;1274;22654;-79
2023/11/30 04:01:23;;;;;;;5.00;3.10;;;;;;;-6.28;83.84;95297.41;106762;1274;24349;-79
2023/11/30 04:03:51;;;;;;;5.30;3.30;;;;;;;-6.30;83.77;95300.92;106868;1274;22696;-79
2023/11/30 04:06:23;;;;;;;13.40;6.70;;;;;;;-6.30;83.62;95308.27;106786;1274;23900;-79
2023/11/30 04:08:52;;;;;;;12.80;6.90;;;;;;;-6.30;82.79;95309.81;106984;1273;22602;-79
2023/11/30 04:11:20;;;;;;;18.00;10.10;;;;;;;-6.38;82.06;95305.04;107139;1273;22520;-79
2023/11/30 04:13:48;;;;;;;21.50;10.60;;;;;;;-6.47;82.12;95307.27;107064;1273;25366;-79
2023/11/30 04:16:17;;;;;;;17.60;9.60;;;;;;;-6.48;82.50;95303.46;106950;1273;22665;-78
2023/11/30 04:18:45;;;;;;;6.00;3.50;;;;;;;-6.54;81.92;95300.11;106724;1274;22517;-79
2023/11/30 04:21:14;;;;;;;5.60;3.30;;;;;;;-6.54;83.23;95294.14;107050;1273;22948;-79
2023/11/30 04:23:43;;;;;;;5.10;2.70;;;;;;;-6.47;83.32;95288.59;106842;1273;22552;-79
2023/11/30 04:26:12;;;;;;;7.20;3.90;;;;;;;-6.55;82.76;95292.73;106770;1274;22517;-79
2023/11/30 04:28:40;;;;;;;5.80;3.30;;;;;;;-6.56;83.14;95295.09;106685;1273;22638;-79
2023/11/30 04:31:09;;;;;;;6.00;3.70;;;;;;;-6.60;83.20;95290.45;106921;1273;22543;-79
2023/11/30 04:33:37;;;;;;;9.70;5.70;;;;;;;-6.55;82.98;95293.41;106866;1273;22540;-79
2023/11/30 04:36:06;;;;;;;4.60;2.70;;;;;;;-6.65;81.91;95293.14;106754;1267;24220;-78
2023/11/30 04:38:34;;;;;;;6.90;4.00;;;;;;;-6.70;82.10;95286.27;106790;1266;23911;-79
2023/11/30 04:41:02;;;;;;;4.30;2.90;;;;;;;-6.86;81.45;95284.91;106863;1273;25487;-79
2023/11/30 04:43:30;;;;;;;4.50;2.40;;;;;;;-6.95;81.81;95276.84;106774;1274;22635;-79
2023/11/30 04:45:58;;;;;;;3.00;1.90;;;;;;;-6.92;82.78;95275.10;106805;1274;22617;-79
2023/11/30 04:48:26;;;;;;;2.50;1.60;;;;;;;-6.91;82.49;95274.46;106879;1273;24383;-78
2023/11/30 04:50:54;;;;;;;2.20;1.70;;;;;;;-6.88;83.23;95272.36;106639;1274;25412;-79
2023/11/30 04:53:22;;;;;;;2.50;1.80;;;;;;;-6.79;83.34;95273.27;106821;1273;22523;-79
2023/11/30 04:55:50;;;;;;;2.40;1.60;;;;;;;-6.82;82.93;95278.10;106874;1274;25304;-79
2023/11/30 04:58:19;;;;;;;3.50;2.00;;;;;;;-6.81;82.67;95277.45;106826;1271;22527;-79
2023/11/30 05:00:47;;;;;;;20.80;8.80;;;;;;;-6.91;82.08;95278.89;106848;1274;22658;-79
2023/11/30 05:03:16;;;;;;;6.60;3.60;;;;;;;-7.02;81.97;95278.80;106889;1273;22639;-79
2023/11/30 05:05:45;;;;;;;9.60;4.40;;;;;;;-7.06;82.25;95279.30;106829;1273;24248;-79
2023/11/30 05:08:13;;;;;;;17.60;7.80;;;;;;;-7.01;82.68;95277.11;106899;1274;22547;-79
2023/11/30 05:10:41;;;;;;;11.70;5.00;;;;;;;-7.02;81.87;95274.48;106955;1273;25428;-79
2023/11/30 05:13:09;;;;;;;3.10;2.00;;;;;;;-7.02;82.43;95272.79;106826;1274;23883;-79
2023/11/30 05:15:39;;;;;;;4.90;3.10;;;;;;;-6.88;83.51;95275.91;106850;1274;25277;-79
2023/11/30 05:18:08;;;;;;;7.20;4.40;;;;;;;-6.85;82.24;95278.11;106919;1273;22534;-79
2023/11/30 05:20:36;;;;;;;9.20;5.80;;;;;;;-6.86;81.82;95290.73;106898;1274;24724;-79
2023/11/30 05:23:04;;;;;;;5.00;2.80;;;;;;;-6.88;82.07;95285.70;106925;1273;22523;-78
2023/11/30 05:25:32;;;;;;;5.50;3.30;;;;;;;-6.79;82.53;95284.73;106876;1273;22635;-79
2023/11/30 05:28:00;;;;;;;3.70;2.40;;;;;;;-6.88;81.07;95276.63;106909;1274;22518;-79
2023/11/30 05:30:29;;;;;;;4.50;2.10;;;;;;;-6.97;81.78;95275.60;106940;1274;24361;-79
2023/11/30 05:32:57;;;;;;;8.60;4.90;;;;;;;-6.90;82.38;95271.56;106882;1273;24384;-79
2023/11/30 05:35:25;;;;;;;11.90;6.40;;;;;;;-6.95;82.18;95273.60;106871;1266;22523;-79
2023/11/30 05:37:54;;;;;;;8.90;5.40;;;;;;;-6.84;83.08;95266.90;106869;1273;22534;-79
2023/11/30 05:40:22;;;;;;;14.10;7.70;;;;;;;-6.90;81.57;95264.73;106978;1274;24373;-79
2023/11/30 05:42:50;;;;;;;15.10;8.10;;;;;;;-7.04;80.85;95271.20;106893;1274;24221;-79
2023/11/30 05:45:18;;;;;;;21.20;11.00;;;;;;;-7.17;80.90;95268.23;106777;1274;22527;-79
2023/11/30 05:47:46;;;;;;;8.80;4.50;;;;;;;-7.23;81.41;95271.70;106906;1273;25425;-79
2023/11/30 05:50:14;;;;;;;5.70;3.50;;;;;;;-7.17;82.41;95265.63;106895;1274;22639;-79
2023/11/30 05:52:42;;;;;;;7.90;3.80;;;;;;;-7.02;83.23;95263.04;106814;1273;22507;-79
2023/11/30 05:55:11;;;;;;;21.80;11.70;;;;;;;-6.83;83.85;95259.41;106869;1274;22629;-78
2023/11/30 05:57:39;;;;;;;7.60;4.60;;;;;;;-6.70;83.32;95263.37;106909;1274;22523;-79
2023/11/30 06:00:12;;;;;;;11.00;5.70;;;;;;;-6.68;82.42;95269.42;106860;1273;25345;-79
2023/11/30 06:02:40;;;;;;;16.20;9.30;;;;;;;-6.66;82.74;95270.39;106680;1274;22554;-78
2023/11/30 06:05:09;;;;;;;4.40;2.60;;;;;;;-6.64;82.41;95260.69;106846;1273;22592;-79
2023/11/30 06:07:38;;;;;;;5.00;2.90;;;;;;;-6.70;81.90;95255.31;106876;1274;22543;-79
2023/11/30 06:10:10;;;;;;;13.30;8.50;;;;;;;-6.76;81.37;95242.91;106789;1274;22516;-78
2023/11/30 06:12:39;;;;;;;27.30;15.70;;;;;;;-6.89;80.95;95244.60;106992;1273;22524;-79
2023/11/30 06:15:08;;;;;;;50.70;28.60;;;;;;;-6.95;81.58;95247.27;106734;1274;22526;-79
2023/11/30 06:17:36;;;;;;;5.20;3.80;;;;;;;-6.94;82.25;95251.76;106953;1274;24442;-79
2023/11/30 06:20:09;;;;;;;36.60;22.10;;;;;;;-6.90;82.32;95249.52;106857;1274;22520;-79
2023/11/30 06:22:39;;;;;;;11.50;8.70;;;;;;;-6.87;81.92;95246.27;106822;1274;22507;-79
2023/11/30 06:25:08;;;;;;;4.40;3.50;;;;;;;-6.89;81.81;95242.03;106958;1273;25307;-78
2023/11/30 06:27:37;;;;;;;22.00;10.90;;;;;;;-6.90;81.99;95238.72;106885;1273;22527;-79
2023/11/30 06:30:07;;;;;;;10.50;5.20;;;;;;;-6.86;82.44;95243.20;106820;1274;22528;-79
2023/11/30 06:32:35;;;;;;;6.90;3.60;;;;;;;-6.74;82.94;95238.74;106760;1274;23253;-79
2023/11/30 06:35:05;;;;;;;3.90;1.90;;;;;;;-6.55;83.53;95238.99;106754;1274;24084;-79
2023/11/30 06:37:33;;;;;;;5.60;3.10;;;;;;;-6.36;83.29;95239.94;106876;1273;22527;-79
2023/11/30 06:40:01;;;;;;;7.90;4.00;;;;;;;-6.27;82.34;95241.81;106821;1273;24272;-79
2023/11/30 06:42:29;;;;;;;16.30;9.00;;;;;;;-6.17;82.07;95237.95;106824;1263;25345;-79
2023/11/30 06:44:57;;;;;;;17.40;9.10;;;;;;;-6.13;81.32;95235.18;106818;1274;24467;-79
2023/11/30 06:47:25;;;;;;;22.00;11.40;;;;;;;-6.12;81.15;95229.74;106857;1274;22639;-78
2023/11/30 06:49:53;;;;;;;16.40;10.70;;;;;;;-6.15;81.03;95230.66;106884;1273;25266;-79
2023/11/30 06:52:21;;;;;;;15.70;7.90;;;;;;;-6.16;81.22;95225.83;106874;1274;25421;-79
2023/11/30 06:54:50;;;;;;;29.60;13.00;;;;;;;-6.17;81.25;95218.57;106846;1274;24050;-79
2023/11/30 06:57:18;;;;;;;36.40;15.00;;;;;;;-6.13;81.78;95216.36;106665;1260;184002;-78
2023/11/30 06:59:46;;;;;;;41.70;17.20;;;;;;;-5.93;81.98;95212.30;106850;1274;22534;-79
2023/11/30 07:02:14;;;;;;;73.80;32.70;;;;;;;-5.85;81.38;95209.84;106871;1274;25405;-79
2023/11/30 07:04:42;;;;;;;76.70;31.30;;;;;;;-5.79;81.27;95203.03;106663;1251;22523;-78
2023/11/30 07:07:11;;;;;;;99.90;45.70;;;;;;;-5.76;81.07;95198.35;106848;1273;22635;-78
2023/11/30 07:09:54;;;;;;;135.30;53.40;;;;;;;-5.75;81.23;95187.09;106874;1274;25366;-79
2023/11/30 07:12:23;;;;;;;120.20;42.40;;;;;;;-5.57;82.23;95181.23;106698;1274;22469;-79
2023/11/30 07:14:52;;;;;;;94.30;43.00;;;;;;;-5.40;82.05;95185.27;106860;1260;22636;-79
2023/11/30 07:17:23;;;;;;;96.70;39.30;;;;;;;-5.38;81.41;95183.47;106863;1274;22648;-79
2023/11/30 07:19:52;;;;;;;153.70;48.30;;;;;;;-5.35;81.63;95188.36;106836;1274;25369;-78
2023/11/30 07:22:24;;;;;;;77.30;30.90;;;;;;;-5.22;81.96;95192.73;106742;1274;22547;-79
2023/11/30 07:24:53;;;;;;;110.00;45.20;;;;;;;-5.24;81.27;95190.80;106869;1274;24206;-78
2023/11/30 07:27:21;;;;;;;152.30;52.30;;;;;;;-5.24;81.55;95187.70;106820;1274;24510;-78
2023/11/30 07:29:50;;;;;;;200.40;66.80;;;;;;;-5.12;81.79;95183.66;106873;1274;24732;-79
2023/11/30 07:32:18;;;;;;;187.50;59.50;;;;;;;-4.93;82.00;95184.11;106860;1274;22656;-78
2023/11/30 07:34:46;;;;;;;116.90;49.50;;;;;;;-4.75;81.41;95181.98;106859;1274;22639;-78
2023/11/30 07:37:20;;;;;;;41.10;16.60;;;;;;;-4.67;81.22;95183.95;106879;1274;22633;-78
2023/11/30 07:39:49;;;;;;;62.50;26.70;;;;;;;-4.49;81.77;95176.81;106776;1274;22529;-78
2023/11/30 07:42:19;;;;;;;41.20;20.60;;;;;;;-4.23;82.10;95172.15;106839;1274;24288;-78
2023/11/30 07:45:01;;;;;;;31.00;14.90;;;;;;;-3.97;80.94;95172.92;106794;1274;22490;-78
2023/11/30 07:47:30;;;;;;;27.10;14.70;;;;;;;-3.87;79.22;95172.52;106809;1274;22628;-78
2023/11/30 07:49:59;;;;;;;32.10;16.00;;;;;;;-3.82;78.47;95163.05;106898;1274;25514;-78
2023/11/30 07:52:28;;;;;;;21.20;11.40;;;;;;;-3.72;78.54;95170.73;106659;1274;22600;-78
2023/11/30 07:54:57;;;;;;;28.20;14.10;;;;;;;-3.58;78.30;95172.85;106796;1256;22519;-78
2023/11/30 07:57:25;;;;;;;39.10;19.90;;;;;;;-3.42;78.37;95171.59;107149;1273;22524;-78
2023/11/30 07:59:53;;;;;;;22.80;10.90;;;;;;;-3.37;77.16;95172.41;106838;1274;25419;-79
2023/11/30 08:02:21;;;;;;;48.70;23.00;;;;;;;-3.29;76.92;95167.13;106674;1274;22546;-78
2023/11/30 08:04:49;;;;;;;23.30;11.40;;;;;;;-3.19;77.39;95170.66;106842;1274;22521;-78
2023/11/30 08:07:19;;;;;;;32.20;15.30;;;;;;;-3.15;77.34;95168.70;106868;1274;24284;-79
2023/11/30 08:09:47;;;;;;;9.00;5.40;;;;;;;-3.22;77.11;95171.10;106813;1274;25422;-78
2023/11/30 08:12:15;;;;;;;21.70;9.80;;;;;;;-3.31;76.93;95175.83;106860;1274;25693;-79
2023/11/30 08:14:43;;;;;;;12.80;7.70;;;;;;;-3.31;77.07;95181.17;106896;1273;24499;-78
2023/11/30 08:17:12;;;;;;;35.40;14.50;;;;;;;-3.27;77.10;95175.08;106855;1274;22561;-78
2023/11/30 08:19:40;;;;;;;38.80;16.40;;;;;;;-3.20;77.21;95175.29;107017;1274;24266;-79
2023/11/30 08:22:09;;;;;;;26.40;11.60;;;;;;;-3.14;77.09;95178.36;106981;1274;22533;-79
2023/11/30 08:24:39;;;;;;;19.70;9.50;;;;;;;-3.11;77.45;95181.02;107045;1274;22546;-78
2023/11/30 08:27:07;;;;;;;15.60;8.80;;;;;;;-2.96;77.25;95176.95;106885;1274;22659;-79
2023/11/30 08:29:36;;;;;;;18.90;10.90;;;;;;;-2.76;77.17;95165.76;106677;1275;25341;-79
2023/11/30 08:32:05;;;;;;;23.60;11.90;;;;;;;-2.68;76.60;95146.33;106876;1273;24369;-79
2023/11/30 08:34:34;;;;;;;26.30;12.30;;;;;;;-2.69;76.63;95151.66;106885;1274;24387;-79
2023/11/30 08:37:02;;;;;;;19.00;9.20;;;;;;;-2.78;76.33;95156.08;106840;1274;23102;-79
2023/11/30 08:39:30;;;;;;;25.60;12.60;;;;;;;-2.77;76.97;95142.33;106864;1274;25383;-76
2023/11/30 08:41:58;;;;;;;25.80;10.70;;;;;;;-2.71;77.46;95147.48;106684;1274;24206;-77
2023/11/30 08:44:26;;;;;;;25.50;12.00;;;;;;;-2.71;77.18;95153.66;106796;1274;22532;-79
2023/11/30 08:46:54;;;;;;;39.30;19.20;;;;;;;-2.76;76.78;95152.16;106997;1274;22620;-78
2023/11/30 08:49:22;;;;;;;14.40;7.90;;;;;;;-2.70;77.39;95153.01;106761;1273;24369;-78
2023/11/30 08:51:51;;;;;;;16.20;8.60;;;;;;;-2.64;77.54;95147.13;106888;1274;25402;-78
2023/11/30 08:54:21;;;;;;;20.90;11.00;;;;;;;-2.62;77.01;95136.84;106862;1274;22639;-78
2023/11/30 08:56:49;;;;;;;15.70;7.90;;;;;;;-2.53;77.53;95130.67;106861;1274;25632;-78
2023/11/30 08:59:18;;;;;;;23.90;11.40;;;;;;;-2.46;76.86;95133.07;106765;1274;24517;-78
2023/11/30 09:01:46;;;;;;;24.30;11.60;;;;;;;-2.56;75.88;95130.11;106881;1274;24394;-78
2023/11/30 09:04:15;;;;;;;26.60;14.40;;;;;;;-2.59;75.91;95130.89;106907;1274;22526;-78
2023/11/30 09:06:43;;;;;;;28.60;14.00;;;;;;;-2.49;76.74;95130.45;106801;1274;24569;-79
2023/11/30 09:09:11;;;;;;;15.50;8.50;;;;;;;-2.37;77.34;95137.45;106794;1274;22520;-78
2023/11/30 09:11:39;;;;;;;17.30;8.60;;;;;;;-2.30;76.19;95126.40;106747;1274;22520;-78
2023/11/30 09:14:07;;;;;;;16.60;8.90;;;;;;;-2.27;76.04;95108.73;106821;1274;22641;-78
2023/11/30 09:16:36;;;;;;;17.10;9.60;;;;;;;-2.37;76.11;95107.98;106889;1272;22646;-79
2023/11/30 09:19:05;;;;;;;23.70;10.80;;;;;;;-2.30;76.59;95093.66;106794;1274;25364;-78
2023/11/30 09:21:33;;;;;;;17.50;9.10;;;;;;;-2.30;76.42;95096.08;106736;1275;22531;-78
2023/11/30 09:24:04;;;;;;;50.00;22.50;;;;;;;-2.30;76.74;95090.06;106800;1263;24225;-78
2023/11/30 09:26:32;;;;;;;25.30;11.30;;;;;;;-2.25;77.04;95082.92;106773;1274;22527;-78
2023/11/30 09:29:00;;;;;;;16.30;8.00;;;;;;;-2.20;76.47;95092.18;106963;1274;22651;-78
2023/11/30 09:31:28;;;;;;;31.30;13.50;;;;;;;-2.33;76.32;95082.58;106739;1274;22538;-78
2023/11/30 09:33:56;;;;;;;30.90;14.40;;;;;;;-2.32;76.42;95082.94;106826;1273;25252;-78
2023/11/30 09:36:25;;;;;;;18.30;10.60;;;;;;;-2.22;76.74;95068.52;106834;1274;22524;-78
2023/11/30 09:38:53;;;;;;;19.50;11.30;;;;;;;-2.19;76.07;95073.23;106676;1274;22638;-78
2023/11/30 09:41:23;;;;;;;27.60;13.80;;;;;;;-2.16;76.06;95074.34;106865;1274;22929;-78
2023/11/30 09:43:52;;;;;;;27.00;12.70;;;;;;;-2.06;76.30;95058.35;106813;1274;22531;-78
2023/11/30 09:46:20;;;;;;;31.50;14.50;;;;;;;-2.00;75.96;95051.92;106813;1274;25514;-78
2023/11/30 09:48:48;;;;;;;24.60;11.90;;;;;;;-1.94;75.75;95034.98;106739;1275;25421;-78
2023/11/30 09:51:20;;;;;;;23.20;10.70;;;;;;;-1.86;76.23;95026.69;106709;1275;22546;-78
2023/11/30 09:53:48;;;;;;;39.30;18.30;;;;;;;-1.81;76.21;95019.39;106823;1274;22531;-78
2023/11/30 09:56:16;;;;;;;22.30;11.40;;;;;;;-1.80;75.53;95011.98;106596;1274;22543;-78
2023/11/30 09:58:44;;;;;;;34.30;16.40;;;;;;;-1.75;75.94;95003.11;106724;1274;22526;-78
2023/11/30 10:01:12;;;;;;;28.40;13.40;;;;;;;-1.68;75.65;95002.20;106765;1274;23918;-78
2023/11/30 10:03:41;;;;;;;24.00;12.10;;;;;;;-1.66;75.43;94986.91;106903;1275;22525;-77
2023/11/30 10:06:09;;;;;;;17.30;9.20;;;;;;;-1.54;76.24;94970.39;106852;1275;22624;-78
2023/11/30 10:08:39;;;;;;;20.40;10.20;;;;;;;-1.43;75.31;94975.90;106641;1275;23187;-78
2023/11/30 10:11:08;;;;;;;24.00;11.00;;;;;;;-1.43;75.01;94967.47;106762;1274;22728;-78
2023/11/30 10:13:36;;;;;;;17.80;9.80;;;;;;;-1.36;75.39;94952.58;106727;1259;22639;-78
2023/11/30 10:16:05;;;;;;;19.10;10.00;;;;;;;-1.42;74.45;94937.13;106638;1275;24219;-78
2023/11/30 10:18:34;;;;;;;36.60;18.00;;;;;;;-1.46;75.06;94929.30;106758;1274;23369;-78
2023/11/30 10:21:03;;;;;;;29.90;14.40;;;;;;;-1.47;75.49;94939.63;106841;1274;22522;-79
2023/11/30 10:23:32;;;;;;;23.00;12.80;;;;;;;-1.58;75.41;94940.14;107181;1274;24223;-78
2023/11/30 10:26:02;;;;;;;27.20;13.10;;;;;;;-1.58;75.57;94944.10;106955;1264;22640;-78
2023/11/30 10:28:31;;;;;;;19.30;11.50;;;;;;;-1.59;75.59;94947.52;106773;1274;22534;-78
2023/11/30 10:31:02;;;;;;;15.10;8.40;;;;;;;-1.65;76.03;94952.95;106808;1274;23877;-78
2023/11/30 10:33:36;;;;;;;19.30;9.40;;;;;;;-1.68;76.07;94956.16;106644;1274;22527;-79
2023/11/30 10:36:06;;;;;;;14.20;9.30;;;;;;;-1.71;76.41;94949.21;106945;1275;22532;-79
2023/11/30 10:38:38;;;;;;;18.80;9.70;;;;;;;-1.63;76.52;94949.36;106717;1252;22722;-79
2023/11/30 10:41:12;;;;;;;18.10;9.60;;;;;;;-1.62;76.54;94931.98;106701;1274;24383;-77
2023/11/30 10:43:51;;;;;;;17.50;8.90;;;;;;;-1.45;76.37;94933.45;106737;1274;25504;-77
2023/11/30 10:46:24;;;;;;;27.10;14.00;;;;;;;-1.35;76.00;94937.23;106780;1274;22527;-77
2023/11/30 10:48:55;;;;;;;19.30;10.00;;;;;;;-1.15;76.06;94932.91;106759;1275;26672;-77
2023/11/30 10:51:24;;;;;;;21.40;13.40;;;;;;;-1.03;75.39;94932.90;107127;1274;25416;-76
2023/11/30 10:54:04;;;;;;;21.70;12.40;;;;;;;-1.00;75.14;94930.36;107026;1274;22535;-77
2023/11/30 10:56:33;;;;;;;22.70;13.00;;;;;;;-0.92;75.41;94931.00;106808;1274;25396;-77
2023/11/30 10:59:02;;;;;;;20.40;11.00;;;;;;;-0.83;75.13;94939.25;106689;1274;25955;-77
2023/11/30 11:01:35;;;;;;;16.70;10.50;;;;;;;-0.81;74.77;94933.05;106831;1274;25421;-78
2023/11/30 11:04:08;;;;;;;22.90;12.30;;;;;;;-0.90;74.61;94929.65;106898;1273;22569;-77
2023/11/30 11:06:36;;;;;;;18.50;10.80;;;;;;;-0.88;75.06;94926.91;106834;1274;22520;-77
2023/11/30 11:09:10;;;;;;;20.10;12.20;;;;;;;-0.85;75.13;94929.36;106707;1274;22615;-77
2023/11/30 11:11:39;;;;;;;20.00;10.40;;;;;;;-0.81;75.45;94924.76;106868;1274;22530;-77
2023/11/30 11:14:08;;;;;;;21.30;12.80;;;;;;;-0.72;75.42;94931.28;106888;1274;23883;-77
2023/11/30 11:16:41;;;;;;;21.10;10.70;;;;;;;-0.68;75.40;94938.94;106981;1274;23134;-77
2023/11/30 11:19:10;;;;;;;17.90;9.90;;;;;;;-0.61;75.89;94931.61;106783;1274;22587;-77
2023/11/30 11:21:39;;;;;;;25.70;12.90;;;;;;;-0.58;75.77;94938.39;106856;1274;22527;-77